sensor_id;sensor_type;location;lat;lon;timestamp;P1;durP1;ratioP1;P2;durP2;ratioP2
6013;SDS011;3035;49.928;8.410;2022-08-21T00:00:49;7.37;;;3.80;;
6013;SDS011;3035;49.928;8.410;2022-08-21T00:03:19;5.57;;;2.93;;
6013;SDS011;3035;49.928;8.410;2022-08-21T00:05:48;19.93;;;3.47;;
6013;SDS011;3035;49.928;8.410;2022-08-21T00:08:16;18.47;;;4.87;;
6013;SDS011;3035;49.928;8.410;2022-08-21T00:10:44;14.80;;;3.70;;
6013;SDS011;3035;49.928;8.410;2022-08-21T00:13:13;9.77;;;3.67;;
6013;SDS011;3035;49.928;8.410;2022-08-21T00:15:42;13.90;;;3.60;;
6013;SDS011;3035;49.928;8.410;2022-08-21T00:18:10;11.67;;;3.70;;
6013;SDS011;3035;49.928;8.410;2022-08-21T00:20:38;12.87;;;3.70;;
6013;SDS011;3035;49.928;8.410;2022-08-21T00:23:07;7.67;;;3.37;;
6013;SDS011;3035;49.928;8.410;2022-08-21T00:25:34;14.10;;;3.47;;
6013;SDS011;3035;49.928;8.410;2022-08-21T00:28:04;8.00;;;3.63;;
6013;SDS011;3035;49.928;8.410;2022-08-21T00:30:32;10.20;;;3.47;;
6013;SDS011;3035;49.928;8.410;2022-08-21T00:33:01;9.80;;;3.70;;
6013;SDS011;3035;49.928;8.410;2022-08-21T00:35:31;9.33;;;3.30;;
6013;SDS011;3035;49.928;8.410;2022-08-21T00:37:57;8.33;;;4.00;;
6013;SDS011;3035;49.928;8.410;2022-08-21T00:40:35;5.20;;;3.07;;
6013;SDS011;3035;49.928;8.410;2022-08-21T00:43:08;15.00;;;3.60;;
6013;SDS011;3035;49.928;8.410;2022-08-21T00:45:36;8.03;;;4.53;;
6013;SDS011;3035;49.928;8.410;2022-08-21T00:48:04;4.53;;;2.77;;
6013;SDS011;3035;49.928;8.410;2022-08-21T00:50:33;11.33;;;3.50;;
6013;SDS011;3035;49.928;8.410;2022-08-21T00:53:01;7.50;;;2.90;;
6013;SDS011;3035;49.928;8.410;2022-08-21T00:55:30;13.50;;;4.50;;
6013;SDS011;3035;49.928;8.410;2022-08-21T00:57:59;9.13;;;3.43;;
6013;SDS011;3035;49.928;8.410;2022-08-21T01:00:29;7.37;;;3.20;;
6013;SDS011;3035;49.928;8.410;2022-08-21T01:02:56;7.63;;;3.10;;
6013;SDS011;3035;49.928;8.410;2022-08-21T01:05:24;13.77;;;3.87;;
6013;SDS011;3035;49.928;8.410;2022-08-21T01:07:53;10.43;;;3.50;;
6013;SDS011;3035;49.928;8.410;2022-08-21T01:10:21;12.53;;;3.40;;
6013;SDS011;3035;49.928;8.410;2022-08-21T01:12:50;9.03;;;3.50;;
6013;SDS011;3035;49.928;8.410;2022-08-21T01:15:19;8.23;;;3.70;;
6013;SDS011;3035;49.928;8.410;2022-08-21T01:17:48;10.77;;;3.20;;
6013;SDS011;3035;49.928;8.410;2022-08-21T01:20:15;12.40;;;3.33;;
6013;SDS011;3035;49.928;8.410;2022-08-21T01:22:44;8.20;;;3.30;;
6013;SDS011;3035;49.928;8.410;2022-08-21T01:25:17;5.70;;;3.03;;
6013;SDS011;3035;49.928;8.410;2022-08-21T01:27:42;11.43;;;3.43;;
6013;SDS011;3035;49.928;8.410;2022-08-21T01:30:12;5.83;;;3.00;;
6013;SDS011;3035;49.928;8.410;2022-08-21T01:32:39;12.17;;;3.70;;
6013;SDS011;3035;49.928;8.410;2022-08-21T01:35:08;11.60;;;3.10;;
6013;SDS011;3035;49.928;8.410;2022-08-21T01:37:36;8.83;;;3.07;;
6013;SDS011;3035;49.928;8.410;2022-08-21T01:40:04;8.03;;;3.03;;
6013;SDS011;3035;49.928;8.410;2022-08-21T01:42:34;16.80;;;3.83;;
6013;SDS011;3035;49.928;8.410;2022-08-21T01:45:03;7.77;;;3.40;;
6013;SDS011;3035;49.928;8.410;2022-08-21T01:47:31;9.53;;;3.60;;
6013;SDS011;3035;49.928;8.410;2022-08-21T01:50:00;6.63;;;3.60;;
6013;SDS011;3035;49.928;8.410;2022-08-21T01:52:28;7.20;;;3.03;;
6013;SDS011;3035;49.928;8.410;2022-08-21T01:54:57;9.63;;;3.50;;
6013;SDS011;3035;49.928;8.410;2022-08-21T01:57:25;11.63;;;4.17;;
6013;SDS011;3035;49.928;8.410;2022-08-21T01:59:53;9.83;;;3.50;;
6013;SDS011;3035;49.928;8.410;2022-08-21T02:02:21;9.00;;;3.17;;
6013;SDS011;3035;49.928;8.410;2022-08-21T02:04:49;6.77;;;3.30;;
6013;SDS011;3035;49.928;8.410;2022-08-21T02:07:18;9.40;;;4.17;;
6013;SDS011;3035;49.928;8.410;2022-08-21T02:09:46;17.10;;;3.77;;
6013;SDS011;3035;49.928;8.410;2022-08-21T02:12:15;13.67;;;3.40;;
6013;SDS011;3035;49.928;8.410;2022-08-21T02:14:43;12.10;;;3.67;;
6013;SDS011;3035;49.928;8.410;2022-08-21T02:17:11;7.30;;;2.70;;
6013;SDS011;3035;49.928;8.410;2022-08-21T02:19:40;8.40;;;3.23;;
6013;SDS011;3035;49.928;8.410;2022-08-21T02:22:09;9.03;;;2.93;;
6013;SDS011;3035;49.928;8.410;2022-08-21T02:24:37;7.77;;;3.50;;
6013;SDS011;3035;49.928;8.410;2022-08-21T02:27:05;8.60;;;3.47;;
6013;SDS011;3035;49.928;8.410;2022-08-21T02:29:33;15.23;;;2.80;;
6013;SDS011;3035;49.928;8.410;2022-08-21T02:32:01;7.57;;;3.53;;
6013;SDS011;3035;49.928;8.410;2022-08-21T02:34:31;10.13;;;3.47;;
6013;SDS011;3035;49.928;8.410;2022-08-21T02:36:59;8.60;;;3.43;;
6013;SDS011;3035;49.928;8.410;2022-08-21T02:39:28;9.43;;;2.73;;
6013;SDS011;3035;49.928;8.410;2022-08-21T02:41:56;8.00;;;2.70;;
6013;SDS011;3035;49.928;8.410;2022-08-21T02:44:25;9.60;;;3.40;;
6013;SDS011;3035;49.928;8.410;2022-08-21T02:46:53;12.23;;;3.20;;
6013;SDS011;3035;49.928;8.410;2022-08-21T02:49:22;9.30;;;3.13;;
6013;SDS011;3035;49.928;8.410;2022-08-21T02:51:51;7.77;;;3.53;;
6013;SDS011;3035;49.928;8.410;2022-08-21T02:54:19;11.80;;;3.23;;
6013;SDS011;3035;49.928;8.410;2022-08-21T02:56:47;8.07;;;3.27;;
6013;SDS011;3035;49.928;8.410;2022-08-21T02:59:15;10.30;;;3.30;;
6013;SDS011;3035;49.928;8.410;2022-08-21T03:01:43;11.63;;;3.40;;
6013;SDS011;3035;49.928;8.410;2022-08-21T03:04:12;6.73;;;2.90;;
6013;SDS011;3035;49.928;8.410;2022-08-21T03:06:41;12.80;;;3.00;;
6013;SDS011;3035;49.928;8.410;2022-08-21T03:09:09;30.80;;;4.03;;
6013;SDS011;3035;49.928;8.410;2022-08-21T03:11:37;7.43;;;3.60;;
6013;SDS011;3035;49.928;8.410;2022-08-21T03:14:05;9.00;;;3.00;;
6013;SDS011;3035;49.928;8.410;2022-08-21T03:16:33;4.90;;;2.60;;
6013;SDS011;3035;49.928;8.410;2022-08-21T03:19:02;6.83;;;3.57;;
6013;SDS011;3035;49.928;8.410;2022-08-21T03:21:31;10.13;;;4.13;;
6013;SDS011;3035;49.928;8.410;2022-08-21T03:23:59;6.83;;;2.80;;
6013;SDS011;3035;49.928;8.410;2022-08-21T03:26:28;7.47;;;3.33;;
6013;SDS011;3035;49.928;8.410;2022-08-21T03:28:56;10.60;;;2.80;;
6013;SDS011;3035;49.928;8.410;2022-08-21T03:31:24;9.33;;;3.80;;
6013;SDS011;3035;49.928;8.410;2022-08-21T03:33:53;7.23;;;3.27;;
6013;SDS011;3035;49.928;8.410;2022-08-21T03:36:21;8.63;;;3.60;;
6013;SDS011;3035;49.928;8.410;2022-08-21T03:38:50;6.20;;;3.60;;
6013;SDS011;3035;49.928;8.410;2022-08-21T03:41:18;8.70;;;4.43;;
6013;SDS011;3035;49.928;8.410;2022-08-21T03:43:47;16.23;;;3.77;;
6013;SDS011;3035;49.928;8.410;2022-08-21T03:46:16;5.33;;;3.30;;
6013;SDS011;3035;49.928;8.410;2022-08-21T03:48:44;5.53;;;3.27;;
6013;SDS011;3035;49.928;8.410;2022-08-21T03:51:13;8.03;;;3.43;;
6013;SDS011;3035;49.928;8.410;2022-08-21T03:53:41;11.97;;;3.40;;
6013;SDS011;3035;49.928;8.410;2022-08-21T03:56:10;10.10;;;4.07;;
6013;SDS011;3035;49.928;8.410;2022-08-21T03:58:38;11.00;;;3.90;;
6013;SDS011;3035;49.928;8.410;2022-08-21T04:01:07;8.07;;;3.47;;
6013;SDS011;3035;49.928;8.410;2022-08-21T04:03:36;11.40;;;3.80;;
6013;SDS011;3035;49.928;8.410;2022-08-21T04:06:04;13.93;;;3.77;;
6013;SDS011;3035;49.928;8.410;2022-08-21T04:08:33;10.53;;;3.23;;
6013;SDS011;3035;49.928;8.410;2022-08-21T04:11:01;10.80;;;3.57;;
6013;SDS011;3035;49.928;8.410;2022-08-21T04:13:30;10.53;;;4.03;;
6013;SDS011;3035;49.928;8.410;2022-08-21T04:15:58;10.53;;;3.17;;
6013;SDS011;3035;49.928;8.410;2022-08-21T04:18:26;10.93;;;3.80;;
6013;SDS011;3035;49.928;8.410;2022-08-21T04:20:56;12.73;;;3.80;;
6013;SDS011;3035;49.928;8.410;2022-08-21T04:23:24;5.77;;;3.10;;
6013;SDS011;3035;49.928;8.410;2022-08-21T04:25:53;5.10;;;3.20;;
6013;SDS011;3035;49.928;8.410;2022-08-21T04:28:21;7.83;;;3.23;;
6013;SDS011;3035;49.928;8.410;2022-08-21T04:30:50;8.40;;;3.50;;
6013;SDS011;3035;49.928;8.410;2022-08-21T04:33:18;20.13;;;3.90;;
6013;SDS011;3035;49.928;8.410;2022-08-21T04:35:46;17.33;;;3.63;;
6013;SDS011;3035;49.928;8.410;2022-08-21T04:38:15;12.23;;;4.27;;
6013;SDS011;3035;49.928;8.410;2022-08-21T04:40:44;13.23;;;3.50;;
6013;SDS011;3035;49.928;8.410;2022-08-21T04:43:12;12.27;;;3.33;;
6013;SDS011;3035;49.928;8.410;2022-08-21T04:45:42;6.30;;;3.50;;
6013;SDS011;3035;49.928;8.410;2022-08-21T04:48:09;7.17;;;3.47;;
6013;SDS011;3035;49.928;8.410;2022-08-21T04:50:40;12.33;;;4.13;;
6013;SDS011;3035;49.928;8.410;2022-08-21T04:53:19;9.13;;;3.90;;
6013;SDS011;3035;49.928;8.410;2022-08-21T04:55:47;7.67;;;3.63;;
6013;SDS011;3035;49.928;8.410;2022-08-21T04:58:16;10.40;;;3.67;;
6013;SDS011;3035;49.928;8.410;2022-08-21T05:00:44;6.97;;;4.07;;
6013;SDS011;3035;49.928;8.410;2022-08-21T05:03:12;8.37;;;3.10;;
6013;SDS011;3035;49.928;8.410;2022-08-21T05:05:41;12.80;;;4.43;;
6013;SDS011;3035;49.928;8.410;2022-08-21T05:08:11;12.83;;;3.13;;
6013;SDS011;3035;49.928;8.410;2022-08-21T05:10:38;16.50;;;4.07;;
6013;SDS011;3035;49.928;8.410;2022-08-21T05:13:07;6.53;;;3.80;;
6013;SDS011;3035;49.928;8.410;2022-08-21T05:15:36;7.50;;;3.10;;
6013;SDS011;3035;49.928;8.410;2022-08-21T05:18:05;14.17;;;4.03;;
6013;SDS011;3035;49.928;8.410;2022-08-21T05:20:34;8.20;;;4.13;;
6013;SDS011;3035;49.928;8.410;2022-08-21T05:23:10;13.43;;;3.90;;
6013;SDS011;3035;49.928;8.410;2022-08-21T05:25:38;18.00;;;4.30;;
6013;SDS011;3035;49.928;8.410;2022-08-21T05:28:07;11.50;;;3.40;;
6013;SDS011;3035;49.928;8.410;2022-08-21T05:30:36;8.40;;;4.00;;
6013;SDS011;3035;49.928;8.410;2022-08-21T05:33:05;7.37;;;3.30;;
6013;SDS011;3035;49.928;8.410;2022-08-21T05:35:33;10.90;;;3.70;;
6013;SDS011;3035;49.928;8.410;2022-08-21T05:38:01;9.83;;;4.03;;
6013;SDS011;3035;49.928;8.410;2022-08-21T05:40:29;12.83;;;4.03;;
6013;SDS011;3035;49.928;8.410;2022-08-21T05:42:58;7.60;;;3.20;;
6013;SDS011;3035;49.928;8.410;2022-08-21T05:45:29;4.67;;;3.13;;
6013;SDS011;3035;49.928;8.410;2022-08-21T05:47:56;9.43;;;3.93;;
6013;SDS011;3035;49.928;8.410;2022-08-21T05:50:24;8.40;;;3.73;;
6013;SDS011;3035;49.928;8.410;2022-08-21T05:52:52;9.50;;;3.83;;
6013;SDS011;3035;49.928;8.410;2022-08-21T05:55:21;8.30;;;3.90;;
6013;SDS011;3035;49.928;8.410;2022-08-21T05:57:49;10.07;;;3.80;;
6013;SDS011;3035;49.928;8.410;2022-08-21T06:00:18;8.67;;;4.03;;
6013;SDS011;3035;49.928;8.410;2022-08-21T06:02:46;12.67;;;3.50;;
6013;SDS011;3035;49.928;8.410;2022-08-21T06:05:15;14.17;;;4.40;;
6013;SDS011;3035;49.928;8.410;2022-08-21T06:07:44;5.87;;;3.33;;
6013;SDS011;3035;49.928;8.410;2022-08-21T06:10:12;10.90;;;3.93;;
6013;SDS011;3035;49.928;8.410;2022-08-21T06:12:40;12.03;;;3.53;;
6013;SDS011;3035;49.928;8.410;2022-08-21T06:15:08;9.60;;;4.10;;
6013;SDS011;3035;49.928;8.410;2022-08-21T06:17:36;9.90;;;3.07;;
6013;SDS011;3035;49.928;8.410;2022-08-21T06:20:06;6.37;;;3.53;;
6013;SDS011;3035;49.928;8.410;2022-08-21T06:22:36;8.07;;;3.30;;
6013;SDS011;3035;49.928;8.410;2022-08-21T06:25:04;11.70;;;3.80;;
6013;SDS011;3035;49.928;8.410;2022-08-21T06:27:34;10.40;;;3.53;;
6013;SDS011;3035;49.928;8.410;2022-08-21T06:30:03;11.43;;;3.50;;
6013;SDS011;3035;49.928;8.410;2022-08-21T06:32:32;6.53;;;2.50;;
6013;SDS011;3035;49.928;8.410;2022-08-21T06:35:00;11.30;;;3.30;;
6013;SDS011;3035;49.928;8.410;2022-08-21T06:37:29;11.23;;;3.40;;
6013;SDS011;3035;49.928;8.410;2022-08-21T06:42:38;13.33;;;3.80;;
6013;SDS011;3035;49.928;8.410;2022-08-21T06:45:07;13.37;;;3.60;;
6013;SDS011;3035;49.928;8.410;2022-08-21T06:47:36;10.93;;;3.10;;
6013;SDS011;3035;49.928;8.410;2022-08-21T06:50:05;4.93;;;3.40;;
6013;SDS011;3035;49.928;8.410;2022-08-21T06:52:36;8.40;;;3.17;;
6013;SDS011;3035;49.928;8.410;2022-08-21T06:55:05;9.07;;;3.90;;
6013;SDS011;3035;49.928;8.410;2022-08-21T06:57:34;7.30;;;3.47;;
6013;SDS011;3035;49.928;8.410;2022-08-21T07:00:04;11.70;;;4.20;;
6013;SDS011;3035;49.928;8.410;2022-08-21T07:02:31;11.20;;;4.23;;
6013;SDS011;3035;49.928;8.410;2022-08-21T07:04:59;7.47;;;3.33;;
6013;SDS011;3035;49.928;8.410;2022-08-21T07:07:28;13.40;;;3.50;;
6013;SDS011;3035;49.928;8.410;2022-08-21T07:09:56;15.20;;;3.60;;
6013;SDS011;3035;49.928;8.410;2022-08-21T07:12:25;9.67;;;3.73;;
6013;SDS011;3035;49.928;8.410;2022-08-21T07:14:53;9.93;;;3.30;;
6013;SDS011;3035;49.928;8.410;2022-08-21T07:17:22;9.30;;;3.47;;
6013;SDS011;3035;49.928;8.410;2022-08-21T07:19:50;7.77;;;3.40;;
6013;SDS011;3035;49.928;8.410;2022-08-21T07:22:19;9.63;;;3.83;;
6013;SDS011;3035;49.928;8.410;2022-08-21T07:24:47;9.23;;;3.50;;
6013;SDS011;3035;49.928;8.410;2022-08-21T07:27:16;7.10;;;3.90;;
6013;SDS011;3035;49.928;8.410;2022-08-21T07:29:44;12.53;;;4.00;;
6013;SDS011;3035;49.928;8.410;2022-08-21T07:32:12;11.03;;;4.10;;
6013;SDS011;3035;49.928;8.410;2022-08-21T07:34:41;12.77;;;4.40;;
6013;SDS011;3035;49.928;8.410;2022-08-21T07:37:09;10.27;;;3.87;;
6013;SDS011;3035;49.928;8.410;2022-08-21T07:39:38;14.40;;;4.50;;
6013;SDS011;3035;49.928;8.410;2022-08-21T07:42:06;12.30;;;3.67;;
6013;SDS011;3035;49.928;8.410;2022-08-21T07:44:34;16.80;;;4.07;;
6013;SDS011;3035;49.928;8.410;2022-08-21T07:47:03;12.93;;;4.53;;
6013;SDS011;3035;49.928;8.410;2022-08-21T07:49:32;7.80;;;4.17;;
6013;SDS011;3035;49.928;8.410;2022-08-21T07:52:00;13.93;;;4.07;;
6013;SDS011;3035;49.928;8.410;2022-08-21T07:54:29;6.40;;;4.33;;
6013;SDS011;3035;49.928;8.410;2022-08-21T07:56:57;8.73;;;4.40;;
6013;SDS011;3035;49.928;8.410;2022-08-21T07:59:25;7.97;;;3.63;;
6013;SDS011;3035;49.928;8.410;2022-08-21T08:01:53;8.10;;;4.87;;
6013;SDS011;3035;49.928;8.410;2022-08-21T08:04:22;16.53;;;4.63;;
6013;SDS011;3035;49.928;8.410;2022-08-21T08:06:51;13.10;;;3.80;;
6013;SDS011;3035;49.928;8.410;2022-08-21T08:09:19;8.70;;;4.47;;
6013;SDS011;3035;49.928;8.410;2022-08-21T08:11:47;9.40;;;4.40;;
6013;SDS011;3035;49.928;8.410;2022-08-21T08:14:16;10.37;;;3.80;;
6013;SDS011;3035;49.928;8.410;2022-08-21T08:16:44;9.87;;;4.50;;
6013;SDS011;3035;49.928;8.410;2022-08-21T08:19:13;10.30;;;4.30;;
6013;SDS011;3035;49.928;8.410;2022-08-21T08:21:41;8.90;;;3.80;;
6013;SDS011;3035;49.928;8.410;2022-08-21T08:24:10;8.80;;;4.40;;
6013;SDS011;3035;49.928;8.410;2022-08-21T08:26:38;8.97;;;4.23;;
6013;SDS011;3035;49.928;8.410;2022-08-21T08:29:07;12.80;;;5.07;;
6013;SDS011;3035;49.928;8.410;2022-08-21T08:31:35;8.43;;;4.40;;
6013;SDS011;3035;49.928;8.410;2022-08-21T08:34:03;6.73;;;4.00;;
6013;SDS011;3035;49.928;8.410;2022-08-21T08:36:32;21.40;;;5.17;;
6013;SDS011;3035;49.928;8.410;2022-08-21T08:39:01;7.43;;;5.50;;
6013;SDS011;3035;49.928;8.410;2022-08-21T08:41:29;6.10;;;4.47;;
6013;SDS011;3035;49.928;8.410;2022-08-21T08:43:59;10.93;;;6.03;;
6013;SDS011;3035;49.928;8.410;2022-08-21T08:46:35;9.80;;;4.93;;
6013;SDS011;3035;49.928;8.410;2022-08-21T08:49:13;10.07;;;5.70;;
6013;SDS011;3035;49.928;8.410;2022-08-21T08:51:48;19.47;;;8.97;;
6013;SDS011;3035;49.928;8.410;2022-08-21T08:54:29;20.97;;;7.20;;
6013;SDS011;3035;49.928;8.410;2022-08-21T08:57:18;15.60;;;6.13;;
6013;SDS011;3035;49.928;8.410;2022-08-21T08:59:45;13.77;;;5.53;;
6013;SDS011;3035;49.928;8.410;2022-08-21T09:02:14;11.40;;;6.70;;
6013;SDS011;3035;49.928;8.410;2022-08-21T09:04:42;12.30;;;6.47;;
6013;SDS011;3035;49.928;8.410;2022-08-21T09:10:00;12.10;;;8.50;;
6013;SDS011;3035;49.928;8.410;2022-08-21T09:12:33;10.53;;;6.30;;
6013;SDS011;3035;49.928;8.410;2022-08-21T09:15:03;7.53;;;5.93;;
6013;SDS011;3035;49.928;8.410;2022-08-21T09:23:13;10.60;;;4.90;;
6013;SDS011;3035;49.928;8.410;2022-08-21T09:25:46;13.00;;;5.30;;
6013;SDS011;3035;49.928;8.410;2022-08-21T09:28:16;12.90;;;5.40;;
6013;SDS011;3035;49.928;8.410;2022-08-21T09:30:44;12.03;;;5.80;;
6013;SDS011;3035;49.928;8.410;2022-08-21T09:33:13;13.10;;;5.37;;
6013;SDS011;3035;49.928;8.410;2022-08-21T09:38:23;7.73;;;4.00;;
6013;SDS011;3035;49.928;8.410;2022-08-21T09:40:45;9.70;;;4.00;;
6013;SDS011;3035;49.928;8.410;2022-08-21T09:43:19;13.17;;;4.67;;
6013;SDS011;3035;49.928;8.410;2022-08-21T09:45:49;8.27;;;3.60;;
6013;SDS011;3035;49.928;8.410;2022-08-21T09:48:19;13.13;;;3.90;;
6013;SDS011;3035;49.928;8.410;2022-08-21T09:50:47;11.23;;;3.33;;
6013;SDS011;3035;49.928;8.410;2022-08-21T09:53:18;9.53;;;2.80;;
6013;SDS011;3035;49.928;8.410;2022-08-21T09:55:54;5.67;;;3.00;;
6013;SDS011;3035;49.928;8.410;2022-08-21T09:58:31;9.07;;;3.70;;
6013;SDS011;3035;49.928;8.410;2022-08-21T10:01:00;8.13;;;3.60;;
6013;SDS011;3035;49.928;8.410;2022-08-21T10:03:28;7.80;;;3.60;;
6013;SDS011;3035;49.928;8.410;2022-08-21T10:05:58;10.80;;;4.07;;
6013;SDS011;3035;49.928;8.410;2022-08-21T10:08:28;5.93;;;3.50;;
6013;SDS011;3035;49.928;8.410;2022-08-21T10:11:00;7.97;;;3.90;;
6013;SDS011;3035;49.928;8.410;2022-08-21T10:16:40;6.60;;;3.43;;
6013;SDS011;3035;49.928;8.410;2022-08-21T10:19:15;6.60;;;3.10;;
6013;SDS011;3035;49.928;8.410;2022-08-21T10:21:54;8.20;;;3.90;;
6013;SDS011;3035;49.928;8.410;2022-08-21T10:24:31;7.63;;;3.40;;
6013;SDS011;3035;49.928;8.410;2022-08-21T10:29:55;7.47;;;3.37;;
6013;SDS011;3035;49.928;8.410;2022-08-21T10:32:34;9.40;;;3.50;;
6013;SDS011;3035;49.928;8.410;2022-08-21T10:35:10;6.60;;;3.23;;
6013;SDS011;3035;49.928;8.410;2022-08-21T10:37:46;4.93;;;2.70;;
6013;SDS011;3035;49.928;8.410;2022-08-21T10:43:19;9.20;;;3.70;;
6013;SDS011;3035;49.928;8.410;2022-08-21T10:45:57;5.63;;;3.47;;
6013;SDS011;3035;49.928;8.410;2022-08-21T10:51:10;12.70;;;4.50;;
6013;SDS011;3035;49.928;8.410;2022-08-21T10:54:00;6.67;;;3.53;;
6013;SDS011;3035;49.928;8.410;2022-08-21T10:56:34;6.60;;;3.27;;
6013;SDS011;3035;49.928;8.410;2022-08-21T10:59:04;9.30;;;3.77;;
6013;SDS011;3035;49.928;8.410;2022-08-21T11:01:44;9.03;;;3.80;;
6013;SDS011;3035;49.928;8.410;2022-08-21T11:04:24;7.67;;;3.30;;
6013;SDS011;3035;49.928;8.410;2022-08-21T11:06:53;7.30;;;3.23;;
6013;SDS011;3035;49.928;8.410;2022-08-21T11:09:21;7.87;;;2.80;;
6013;SDS011;3035;49.928;8.410;2022-08-21T11:11:52;8.10;;;3.10;;
6013;SDS011;3035;49.928;8.410;2022-08-21T11:14:25;8.53;;;3.40;;
6013;SDS011;3035;49.928;8.410;2022-08-21T11:17:00;8.60;;;3.20;;
6013;SDS011;3035;49.928;8.410;2022-08-21T11:19:30;4.63;;;2.90;;
6013;SDS011;3035;49.928;8.410;2022-08-21T11:24:48;6.43;;;3.17;;
6013;SDS011;3035;49.928;8.410;2022-08-21T11:27:23;7.87;;;3.27;;
6013;SDS011;3035;49.928;8.410;2022-08-21T11:30:09;14.70;;;3.07;;
6013;SDS011;3035;49.928;8.410;2022-08-21T11:32:46;5.90;;;3.47;;
6013;SDS011;3035;49.928;8.410;2022-08-21T11:46:16;6.17;;;3.03;;
6013;SDS011;3035;49.928;8.410;2022-08-21T11:49:06;7.20;;;2.87;;
6013;SDS011;3035;49.928;8.410;2022-08-21T11:51:53;7.83;;;2.67;;
6013;SDS011;3035;49.928;8.410;2022-08-21T11:54:37;4.97;;;2.27;;
6013;SDS011;3035;49.928;8.410;2022-08-21T11:59:59;6.30;;;3.03;;
6013;SDS011;3035;49.928;8.410;2022-08-21T12:02:28;6.97;;;2.73;;
6013;SDS011;3035;49.928;8.410;2022-08-21T12:04:55;5.97;;;2.80;;
6013;SDS011;3035;49.928;8.410;2022-08-21T12:07:29;10.73;;;2.90;;
6013;SDS011;3035;49.928;8.410;2022-08-21T12:10:12;11.73;;;2.83;;
6013;SDS011;3035;49.928;8.410;2022-08-21T12:12:42;12.40;;;4.30;;
6013;SDS011;3035;49.928;8.410;2022-08-21T12:15:14;4.17;;;1.90;;
6013;SDS011;3035;49.928;8.410;2022-08-21T12:23:16;3.80;;;2.17;;
6013;SDS011;3035;49.928;8.410;2022-08-21T12:25:47;6.00;;;2.47;;
6013;SDS011;3035;49.928;8.410;2022-08-21T12:28:15;12.57;;;2.73;;
6013;SDS011;3035;49.928;8.410;2022-08-21T12:30:44;6.53;;;2.83;;
6013;SDS011;3035;49.928;8.410;2022-08-21T12:38:48;4.63;;;2.60;;
6013;SDS011;3035;49.928;8.410;2022-08-21T12:41:19;8.00;;;2.53;;
6013;SDS011;3035;49.928;8.410;2022-08-21T12:43:48;3.83;;;1.97;;
6013;SDS011;3035;49.928;8.410;2022-08-21T12:46:20;4.93;;;2.60;;
6013;SDS011;3035;49.928;8.410;2022-08-21T12:48:52;5.60;;;2.40;;
6013;SDS011;3035;49.928;8.410;2022-08-21T12:51:31;3.73;;;2.77;;
6013;SDS011;3035;49.928;8.410;2022-08-21T12:54:04;3.93;;;2.47;;
6013;SDS011;3035;49.928;8.410;2022-08-21T12:56:34;3.60;;;2.20;;
6013;SDS011;3035;49.928;8.410;2022-08-21T12:59:01;6.60;;;3.20;;
6013;SDS011;3035;49.928;8.410;2022-08-21T13:01:32;5.30;;;2.53;;
6013;SDS011;3035;49.928;8.410;2022-08-21T13:04:02;7.50;;;2.17;;
6013;SDS011;3035;49.928;8.410;2022-08-21T13:06:31;4.87;;;2.53;;
6013;SDS011;3035;49.928;8.410;2022-08-21T13:08:58;5.83;;;1.97;;
6013;SDS011;3035;49.928;8.410;2022-08-21T13:11:26;3.80;;;2.40;;
6013;SDS011;3035;49.928;8.410;2022-08-21T13:13:55;3.60;;;1.87;;
6013;SDS011;3035;49.928;8.410;2022-08-21T13:16:26;5.60;;;2.33;;
6013;SDS011;3035;49.928;8.410;2022-08-21T13:18:56;5.43;;;2.30;;
6013;SDS011;3035;49.928;8.410;2022-08-21T13:21:27;3.57;;;2.30;;
6013;SDS011;3035;49.928;8.410;2022-08-21T13:24:06;4.03;;;2.10;;
6013;SDS011;3035;49.928;8.410;2022-08-21T13:26:24;10.50;;;2.47;;
6013;SDS011;3035;49.928;8.410;2022-08-21T13:28:52;9.40;;;2.10;;
6013;SDS011;3035;49.928;8.410;2022-08-21T13:31:22;4.07;;;2.50;;
6013;SDS011;3035;49.928;8.410;2022-08-21T13:33:50;3.50;;;1.90;;
6013;SDS011;3035;49.928;8.410;2022-08-21T13:36:20;4.70;;;2.10;;
6013;SDS011;3035;49.928;8.410;2022-08-21T13:38:48;6.00;;;2.23;;
6013;SDS011;3035;49.928;8.410;2022-08-21T13:41:21;4.50;;;2.50;;
6013;SDS011;3035;49.928;8.410;2022-08-21T13:43:57;3.43;;;2.30;;
6013;SDS011;3035;49.928;8.410;2022-08-21T13:46:26;7.60;;;2.07;;
6013;SDS011;3035;49.928;8.410;2022-08-21T13:48:54;6.50;;;2.50;;
6013;SDS011;3035;49.928;8.410;2022-08-21T13:51:23;4.50;;;2.07;;
6013;SDS011;3035;49.928;8.410;2022-08-21T13:53:51;4.77;;;2.40;;
6013;SDS011;3035;49.928;8.410;2022-08-21T13:56:22;6.97;;;2.67;;
6013;SDS011;3035;49.928;8.410;2022-08-21T13:58:56;5.03;;;2.37;;
6013;SDS011;3035;49.928;8.410;2022-08-21T14:01:25;4.50;;;1.57;;
6013;SDS011;3035;49.928;8.410;2022-08-21T14:03:57;3.97;;;2.10;;
6013;SDS011;3035;49.928;8.410;2022-08-21T14:06:25;3.47;;;1.97;;
6013;SDS011;3035;49.928;8.410;2022-08-21T14:08:54;5.17;;;2.27;;
6013;SDS011;3035;49.928;8.410;2022-08-21T14:11:22;3.53;;;1.90;;
6013;SDS011;3035;49.928;8.410;2022-08-21T14:13:56;4.77;;;2.03;;
6013;SDS011;3035;49.928;8.410;2022-08-21T14:16:42;5.20;;;1.80;;
6013;SDS011;3035;49.928;8.410;2022-08-21T14:19:17;5.03;;;2.40;;
6013;SDS011;3035;49.928;8.410;2022-08-21T14:21:48;3.77;;;2.03;;
6013;SDS011;3035;49.928;8.410;2022-08-21T14:27:02;3.33;;;2.00;;
6013;SDS011;3035;49.928;8.410;2022-08-21T14:29:32;4.80;;;1.90;;
6013;SDS011;3035;49.928;8.410;2022-08-21T14:32:00;5.57;;;2.30;;
6013;SDS011;3035;49.928;8.410;2022-08-21T14:34:28;3.47;;;2.23;;
6013;SDS011;3035;49.928;8.410;2022-08-21T14:36:57;2.57;;;1.70;;
6013;SDS011;3035;49.928;8.410;2022-08-21T14:39:25;5.93;;;2.20;;
6013;SDS011;3035;49.928;8.410;2022-08-21T14:41:54;2.73;;;2.00;;
6013;SDS011;3035;49.928;8.410;2022-08-21T14:44:22;3.30;;;1.90;;
6013;SDS011;3035;49.928;8.410;2022-08-21T14:46:50;8.93;;;2.20;;
6013;SDS011;3035;49.928;8.410;2022-08-21T14:49:18;6.50;;;2.30;;
6013;SDS011;3035;49.928;8.410;2022-08-21T14:51:47;4.50;;;2.23;;
6013;SDS011;3035;49.928;8.410;2022-08-21T14:54:15;3.80;;;1.93;;
6013;SDS011;3035;49.928;8.410;2022-08-21T14:56:44;3.73;;;2.27;;
6013;SDS011;3035;49.928;8.410;2022-08-21T14:59:12;6.93;;;2.07;;
6013;SDS011;3035;49.928;8.410;2022-08-21T15:01:40;5.30;;;1.90;;
6013;SDS011;3035;49.928;8.410;2022-08-21T15:04:08;10.33;;;2.20;;
6013;SDS011;3035;49.928;8.410;2022-08-21T15:06:37;7.40;;;2.37;;
6013;SDS011;3035;49.928;8.410;2022-08-21T15:09:05;9.10;;;1.90;;
6013;SDS011;3035;49.928;8.410;2022-08-21T15:11:34;5.43;;;2.10;;
6013;SDS011;3035;49.928;8.410;2022-08-21T15:14:02;4.43;;;1.90;;
6013;SDS011;3035;49.928;8.410;2022-08-21T15:16:29;2.87;;;2.00;;
6013;SDS011;3035;49.928;8.410;2022-08-21T15:18:59;8.13;;;2.27;;
6013;SDS011;3035;49.928;8.410;2022-08-21T15:21:27;3.57;;;1.97;;
6013;SDS011;3035;49.928;8.410;2022-08-21T15:23:55;5.17;;;2.10;;
6013;SDS011;3035;49.928;8.410;2022-08-21T15:26:23;7.27;;;2.63;;
6013;SDS011;3035;49.928;8.410;2022-08-21T15:28:52;5.07;;;2.27;;
6013;SDS011;3035;49.928;8.410;2022-08-21T15:31:20;5.93;;;1.93;;
6013;SDS011;3035;49.928;8.410;2022-08-21T15:33:48;3.57;;;2.30;;
6013;SDS011;3035;49.928;8.410;2022-08-21T15:36:17;7.20;;;2.33;;
6013;SDS011;3035;49.928;8.410;2022-08-21T15:38:45;10.30;;;2.70;;
6013;SDS011;3035;49.928;8.410;2022-08-21T15:41:14;5.53;;;2.47;;
6013;SDS011;3035;49.928;8.410;2022-08-21T15:43:45;4.83;;;2.20;;
6013;SDS011;3035;49.928;8.410;2022-08-21T15:46:12;4.23;;;2.00;;
6013;SDS011;3035;49.928;8.410;2022-08-21T15:48:40;7.53;;;2.47;;
6013;SDS011;3035;49.928;8.410;2022-08-21T15:51:09;9.93;;;2.10;;
6013;SDS011;3035;49.928;8.410;2022-08-21T15:53:37;3.40;;;2.23;;
6013;SDS011;3035;49.928;8.410;2022-08-21T15:56:06;8.03;;;2.90;;
6013;SDS011;3035;49.928;8.410;2022-08-21T15:58:34;2.70;;;1.80;;
6013;SDS011;3035;49.928;8.410;2022-08-21T16:01:02;3.53;;;1.80;;
6013;SDS011;3035;49.928;8.410;2022-08-21T16:03:31;10.43;;;2.30;;
6013;SDS011;3035;49.928;8.410;2022-08-21T16:05:59;5.27;;;2.10;;
6013;SDS011;3035;49.928;8.410;2022-08-21T16:08:27;8.93;;;2.00;;
6013;SDS011;3035;49.928;8.410;2022-08-21T16:10:56;4.97;;;2.33;;
6013;SDS011;3035;49.928;8.410;2022-08-21T16:13:26;5.77;;;2.20;;
6013;SDS011;3035;49.928;8.410;2022-08-21T16:15:53;5.47;;;2.30;;
6013;SDS011;3035;49.928;8.410;2022-08-21T16:18:20;3.20;;;2.13;;
6013;SDS011;3035;49.928;8.410;2022-08-21T16:20:50;8.53;;;2.47;;